createdAt,value
2022-09-11T00:00:53.922Z,14.38
2022-09-11T00:01:56.886Z,14.38
2022-09-11T00:02:58.920Z,14.40
2022-09-11T00:04:03.671Z,14.39
2022-09-11T00:05:06.338Z,14.43
2022-09-11T00:06:11.988Z,14.43
2022-09-11T00:07:14.971Z,14.40
2022-09-11T00:08:18.768Z,14.45
2022-09-11T00:09:21.746Z,14.46
2022-09-11T00:10:24.363Z,14.45
2022-09-11T00:11:30.347Z,14.46
2022-09-11T00:12:32.326Z,14.45
2022-09-11T00:13:35.675Z,14.47
2022-09-11T00:14:37.651Z,14.46
2022-09-11T00:15:42.105Z,14.46
2022-09-11T00:16:47.467Z,14.47
2022-09-11T00:17:49.662Z,14.40
2022-09-11T00:18:53.097Z,14.48
2022-09-11T00:19:55.369Z,14.49
2022-09-11T00:20:59.192Z,14.42
2022-09-11T00:22:02.140Z,14.50
2022-09-11T00:23:05.197Z,14.49
2022-09-11T00:24:10.212Z,14.37
2022-09-11T00:25:12.534Z,14.52
2022-09-11T00:26:16.105Z,14.53
2022-09-11T00:27:20.904Z,14.53
2022-09-11T00:28:25.547Z,14.54
2022-09-11T00:29:29.911Z,14.54
2022-09-11T00:30:32.167Z,14.55
2022-09-11T00:31:35.599Z,14.56
2022-09-11T00:32:37.808Z,14.56
2022-09-11T00:33:42.419Z,14.55
2022-09-11T00:34:46.942Z,14.56
2022-09-11T00:35:56.935Z,14.57
2022-09-11T00:36:59.023Z,14.58
2022-09-11T00:38:02.242Z,14.57
2022-09-11T00:39:04.572Z,14.56
2022-09-11T00:40:08.975Z,14.48
2022-09-11T00:41:14.388Z,14.51
2022-09-11T00:42:17.636Z,14.55
2022-09-11T00:43:21.732Z,14.54
2022-09-11T00:45:00.837Z,14.53
2022-09-11T00:46:05.807Z,14.50
2022-09-11T00:47:10.699Z,14.46
2022-09-11T00:48:16.244Z,14.47
2022-09-11T00:49:24.678Z,14.44
2022-09-11T00:50:31.062Z,14.41
2022-09-11T00:51:38.760Z,14.42
2022-09-11T00:52:52.481Z,14.39
2022-09-11T00:53:59.412Z,14.41
2022-09-11T00:55:05.399Z,14.40
2022-09-11T00:56:09.895Z,14.40
2022-09-11T00:57:12.621Z,14.40
2022-09-11T00:58:19.504Z,14.40
2022-09-11T00:59:26.948Z,14.39
2022-09-11T01:00:30.202Z,14.38
2022-09-11T01:01:33.243Z,14.39
2022-09-11T01:02:39.690Z,14.39
2022-09-11T01:03:42.391Z,14.33
2022-09-11T01:04:45.451Z,14.38
2022-09-11T01:05:48.326Z,14.38
2022-09-11T01:06:53.701Z,14.35
2022-09-11T01:07:56.679Z,14.38
2022-09-11T01:09:00.207Z,14.37
2022-09-11T01:10:03.346Z,14.38
2022-09-11T01:11:21.733Z,14.38
2022-09-11T01:12:32.794Z,14.37
2022-09-11T01:13:44.915Z,14.38
2022-09-11T01:14:56.409Z,14.39
2022-09-11T01:16:08.716Z,14.37
2022-09-11T01:17:22.635Z,14.39
2022-09-11T01:18:30.013Z,14.39
2022-09-11T01:19:48.609Z,14.40
2022-09-11T01:21:09.842Z,14.41
2022-09-11T01:22:36.218Z,14.41
2022-09-11T01:24:05.281Z,14.42
2022-09-11T01:25:19.370Z,14.38
2022-09-11T01:26:47.458Z,14.43
2022-09-11T01:27:53.264Z,14.44
2022-09-11T01:29:03.504Z,14.44
2022-09-11T01:30:11.494Z,14.44
2022-09-11T01:31:20.728Z,14.44
2022-09-11T01:32:27.971Z,14.45
2022-09-11T01:33:38.650Z,14.44
2022-09-11T01:34:48.423Z,14.46
2022-09-11T01:35:57.757Z,14.44
2022-09-11T01:37:05.412Z,14.47
2022-09-11T01:38:14.786Z,14.42
2022-09-11T01:39:20.238Z,14.46
2022-09-11T01:40:27.456Z,14.46
2022-09-11T01:41:34.924Z,14.46
2022-09-11T01:42:43.312Z,14.44
2022-09-11T01:43:52.805Z,14.47
2022-09-11T01:44:58.465Z,14.48
2022-09-11T01:46:03.267Z,14.46
2022-09-11T01:47:11.336Z,14.47
2022-09-11T01:48:19.019Z,14.47
2022-09-11T01:49:28.264Z,14.46
2022-09-11T01:50:32.963Z,14.46
2022-09-11T01:51:39.066Z,14.47
2022-09-11T01:52:47.937Z,14.48
2022-09-11T01:53:53.899Z,14.48
2022-09-11T01:55:01.282Z,14.49
2022-09-11T01:56:13.200Z,14.51
2022-09-11T01:57:21.980Z,14.52
2022-09-11T01:58:30.613Z,14.53
2022-09-11T01:59:42.400Z,14.53
2022-09-11T02:00:49.884Z,14.53
2022-09-11T02:02:05.154Z,14.55
2022-09-11T02:03:14.289Z,14.56
2022-09-11T02:04:20.129Z,14.56
2022-09-11T02:05:27.756Z,14.53
2022-09-11T02:06:34.789Z,14.56
2022-09-11T02:07:42.309Z,14.58
2022-09-11T02:08:50.167Z,14.59
2022-09-11T02:10:01.352Z,14.59
2022-09-11T02:11:07.425Z,14.61
2022-09-11T02:12:16.494Z,14.59
2022-09-11T02:13:27.240Z,14.59
2022-09-11T02:14:38.522Z,14.59
2022-09-11T02:15:43.922Z,14.59
2022-09-11T02:16:50.764Z,14.55
2022-09-11T02:17:59.529Z,14.57
2022-09-11T02:19:06.045Z,14.57
2022-09-11T02:20:10.191Z,14.58
2022-09-11T02:21:13.149Z,14.58
2022-09-11T02:22:16.115Z,14.58
2022-09-11T02:23:18.457Z,14.57
2022-09-11T02:24:23.410Z,14.58
2022-09-11T02:25:25.389Z,14.57
2022-09-11T02:26:38.675Z,14.57
2022-09-11T02:27:41.324Z,14.57
2022-09-11T02:28:44.335Z,14.56
2022-09-11T02:29:47.784Z,14.51
2022-09-11T02:30:51.159Z,14.51
2022-09-11T02:31:55.124Z,14.51
2022-09-11T02:32:57.057Z,14.49
2022-09-11T02:34:00.035Z,14.49
2022-09-11T02:35:02.741Z,14.48
2022-09-11T02:36:20.915Z,14.47
2022-09-11T02:37:34.723Z,14.45
2022-09-11T02:38:48.403Z,14.45
2022-09-11T02:40:19.505Z,14.44
2022-09-11T02:41:28.386Z,14.38
2022-09-11T02:42:42.130Z,14.41
2022-09-11T02:43:57.734Z,14.41
2022-09-11T02:45:09.602Z,14.40
2022-09-11T02:46:34.886Z,14.41
2022-09-11T02:47:46.931Z,14.39
2022-09-11T02:49:00.231Z,14.40
2022-09-11T02:50:09.931Z,14.39
2022-09-11T02:51:21.858Z,14.38
2022-09-11T02:52:36.024Z,14.38
2022-09-11T02:53:48.592Z,14.37
2022-09-11T02:54:56.447Z,14.35
2022-09-11T02:56:05.588Z,14.37
2022-09-11T02:57:19.225Z,14.36
2022-09-11T02:58:27.869Z,14.36
2022-09-11T02:59:34.078Z,14.35
2022-09-11T03:00:40.521Z,14.37
2022-09-11T03:01:50.251Z,14.37
2022-09-11T03:02:54.360Z,14.38
2022-09-11T03:03:56.707Z,14.40
2022-09-11T03:04:59.718Z,14.41
2022-09-11T03:06:01.756Z,14.41
2022-09-11T03:07:05.452Z,14.42
2022-09-11T03:08:07.744Z,14.41
2022-09-11T03:09:10.782Z,14.40
2022-09-11T03:10:13.162Z,14.43
2022-09-11T03:11:17.684Z,14.39
2022-09-11T03:12:21.126Z,14.44
2022-09-11T03:13:26.426Z,14.45
2022-09-11T03:14:28.424Z,14.28
2022-09-11T03:15:31.415Z,14.49
2022-09-11T03:16:33.437Z,14.49
2022-09-11T03:17:37.748Z,14.51
2022-09-11T03:18:39.940Z,14.52
2022-09-11T03:19:44.263Z,14.52
2022-09-11T03:20:47.013Z,14.52
2022-09-11T03:21:51.028Z,14.52
2022-09-11T03:22:53.062Z,14.52
2022-09-11T03:23:57.417Z,14.52
2022-09-11T03:24:59.430Z,14.46
2022-09-11T03:26:06.486Z,14.52
2022-09-11T03:27:09.440Z,14.52
2022-09-11T03:28:12.563Z,14.52
2022-09-11T03:29:14.719Z,14.51
2022-09-11T03:30:19.181Z,14.52
2022-09-11T03:31:23.984Z,14.52
2022-09-11T03:32:26.923Z,14.53
2022-09-11T03:33:32.348Z,14.53
2022-09-11T03:34:35.296Z,14.53
2022-09-11T03:35:37.436Z,14.53
2022-09-11T03:36:40.761Z,14.33
2022-09-11T03:37:42.788Z,14.51
2022-09-11T03:38:46.484Z,14.53
2022-09-11T03:39:50.278Z,14.53
2022-09-11T03:40:55.049Z,14.53
2022-09-11T03:41:58.349Z,14.53
2022-09-11T03:43:02.808Z,14.53
2022-09-11T03:44:04.954Z,14.53
2022-09-11T03:45:08.542Z,14.52
2022-09-11T03:46:10.718Z,14.51
2022-09-11T03:47:13.909Z,14.54
2022-09-11T03:48:15.939Z,14.54
2022-09-11T03:49:20.446Z,14.55
2022-09-11T03:50:22.453Z,14.55
2022-09-11T03:51:26.337Z,14.55
2022-09-11T03:52:30.330Z,14.45
2022-09-11T03:53:34.198Z,14.56
2022-09-11T03:54:36.284Z,14.58
2022-09-11T03:55:39.860Z,14.57
2022-09-11T03:56:43.075Z,14.58
2022-09-11T03:57:46.154Z,14.58
2022-09-11T03:58:48.638Z,14.58
2022-09-11T03:59:51.708Z,14.60
2022-09-11T04:00:53.728Z,14.59
2022-09-11T04:01:56.806Z,14.60
2022-09-11T04:02:59.348Z,14.59
2022-09-11T04:04:11.882Z,14.56
2022-09-11T04:05:18.879Z,14.59
2022-09-11T04:06:22.160Z,14.55
2022-09-11T04:07:24.976Z,14.58
2022-09-11T04:08:33.468Z,14.58
2022-09-11T04:09:37.096Z,14.57
2022-09-11T04:10:40.777Z,14.58
2022-09-11T04:11:44.205Z,14.57
2022-09-11T04:12:55.859Z,14.56
2022-09-11T04:13:59.761Z,14.56
2022-09-11T04:15:03.673Z,14.36
2022-09-11T04:16:09.618Z,14.55
2022-09-11T04:17:13.252Z,14.53
2022-09-11T04:18:16.232Z,14.53
2022-09-11T04:19:18.853Z,14.53
2022-09-11T04:20:23.243Z,14.54
2022-09-11T04:21:25.328Z,14.48
2022-09-11T04:22:31.232Z,14.54
2022-09-11T04:23:34.505Z,14.32
2022-09-11T04:24:37.975Z,14.55
2022-09-11T04:25:40.038Z,14.53
2022-09-11T04:26:43.361Z,14.53
2022-09-11T04:27:57.994Z,14.52
2022-09-11T04:29:01.342Z,14.52
2022-09-11T04:30:05.342Z,14.50
2022-09-11T04:31:08.374Z,14.51
2022-09-11T04:32:11.658Z,14.51
2022-09-11T04:33:15.634Z,14.51
2022-09-11T04:34:17.942Z,14.51
2022-09-11T04:35:20.846Z,14.50
2022-09-11T04:36:30.057Z,14.50
2022-09-11T04:37:35.526Z,14.50
2022-09-11T04:38:39.066Z,14.49
2022-09-11T04:39:42.136Z,14.49
2022-09-11T04:40:44.465Z,14.49
2022-09-11T04:41:48.317Z,14.49
2022-09-11T04:42:51.340Z,14.48
2022-09-11T04:43:59.116Z,14.47
2022-09-11T04:45:05.138Z,14.48
2022-09-11T04:46:12.840Z,14.49
2022-09-11T04:47:16.119Z,14.50
2022-09-11T04:48:19.325Z,14.48
2022-09-11T04:49:21.721Z,14.50
2022-09-11T04:50:24.657Z,14.50
2022-09-11T04:51:47.339Z,14.49
2022-09-11T04:52:52.064Z,14.50
2022-09-11T04:53:57.510Z,14.49
2022-09-11T04:55:02.839Z,14.51
2022-09-11T04:56:09.646Z,14.51
2022-09-11T04:57:17.044Z,14.51
2022-09-11T04:58:20.199Z,14.51
2022-09-11T04:59:23.846Z,14.51
2022-09-11T05:00:32.315Z,14.52
2022-09-11T05:01:34.382Z,14.52
2022-09-11T05:02:37.470Z,14.53
2022-09-11T05:03:40.339Z,14.54
2022-09-11T05:04:43.386Z,14.54
2022-09-11T05:05:45.360Z,14.54
2022-09-11T05:06:49.719Z,14.55
2022-09-11T05:07:52.718Z,14.53
2022-09-11T05:08:56.192Z,14.53
2022-09-11T05:09:58.259Z,14.52
2022-09-11T05:11:01.279Z,14.49
2022-09-11T05:12:03.339Z,14.51
2022-09-11T05:13:09.171Z,14.49
2022-09-11T05:14:12.622Z,14.50
2022-09-11T05:15:17.588Z,14.51
2022-09-11T05:16:19.653Z,14.52
2022-09-11T05:17:22.694Z,14.52
2022-09-11T05:18:24.650Z,14.53
2022-09-11T05:19:27.674Z,14.55
2022-09-11T05:20:31.002Z,14.56
2022-09-11T05:21:34.393Z,14.52
2022-09-11T05:22:37.765Z,14.58
2022-09-11T05:23:41.292Z,14.60
2022-09-11T05:24:43.348Z,14.60
2022-09-11T05:25:47.206Z,14.61
2022-09-11T05:26:49.223Z,14.62
2022-09-11T05:27:52.895Z,14.62
2022-09-11T05:28:55.394Z,14.63
2022-09-11T05:29:58.384Z,14.64
2022-09-11T05:31:00.602Z,14.65
2022-09-11T05:32:04.074Z,14.65
2022-09-11T05:33:06.728Z,14.64
2022-09-11T05:34:09.711Z,14.65
2022-09-11T05:35:12.060Z,14.64
2022-09-11T05:36:16.758Z,14.65
2022-09-11T05:37:19.196Z,14.66
2022-09-11T05:38:26.539Z,14.66
2022-09-11T05:39:28.958Z,14.66
2022-09-11T05:40:32.679Z,14.67
2022-09-11T05:41:34.720Z,14.69
2022-09-11T05:42:38.675Z,14.69
2022-09-11T05:43:41.631Z,14.70
2022-09-11T05:44:47.266Z,14.72
2022-09-11T05:45:54.827Z,14.74
2022-09-11T05:46:58.482Z,14.74
2022-09-11T05:48:00.606Z,14.75
2022-09-11T05:49:03.672Z,14.77
2022-09-11T05:50:07.313Z,14.77
2022-09-11T05:51:12.923Z,14.77
2022-09-11T05:52:15.002Z,14.78
2022-09-11T05:53:18.471Z,14.80
2022-09-11T05:54:22.815Z,14.81
2022-09-11T05:55:25.768Z,14.82
2022-09-11T05:56:29.231Z,14.84
2022-09-11T05:57:34.795Z,14.84
2022-09-11T05:58:38.777Z,14.84
2022-09-11T05:59:41.792Z,14.85
2022-09-11T06:00:46.618Z,14.86
2022-09-11T06:01:48.654Z,14.86
2022-09-11T06:02:58.294Z,14.86
2022-09-11T06:04:03.488Z,14.87
2022-09-11T06:05:07.088Z,14.88
2022-09-11T06:06:10.471Z,14.88
2022-09-11T06:07:13.719Z,14.89
2022-09-11T06:08:17.688Z,14.92
2022-09-11T06:09:22.041Z,14.93
2022-09-11T06:10:24.219Z,14.95
2022-09-11T06:11:27.232Z,14.97
2022-09-11T06:12:29.441Z,14.99
2022-09-11T06:13:36.220Z,14.97
2022-09-11T06:14:39.257Z,15.02
2022-09-11T06:15:46.933Z,15.04
2022-09-11T06:16:50.880Z,15.05
2022-09-11T06:17:53.504Z,15.07
2022-09-11T06:18:56.671Z,15.09
2022-09-11T06:20:00.999Z,15.10
2022-09-11T06:21:07.110Z,15.12
2022-09-11T06:22:15.721Z,15.13
2022-09-11T06:23:20.478Z,15.12
2022-09-11T06:24:25.181Z,15.12
2022-09-11T06:25:27.155Z,15.14
2022-09-11T06:26:30.487Z,15.15
2022-09-11T06:27:32.417Z,15.15
2022-09-11T06:28:36.298Z,15.15
2022-09-11T06:29:38.438Z,15.18
2022-09-11T06:30:41.696Z,15.20
2022-09-11T06:31:47.706Z,15.20
2022-09-11T06:32:51.842Z,15.22
2022-09-11T06:33:57.087Z,15.22
2022-09-11T06:34:59.415Z,15.22
2022-09-11T06:36:04.681Z,15.21
2022-09-11T06:37:06.672Z,15.19
2022-09-11T06:38:09.757Z,15.17
2022-09-11T06:39:11.809Z,15.17
2022-09-11T06:40:18.369Z,15.18
2022-09-11T06:41:20.978Z,15.16
2022-09-11T06:42:23.948Z,15.17
2022-09-11T06:43:28.121Z,15.17
2022-09-11T06:44:31.226Z,15.16
2022-09-11T06:45:35.563Z,15.15
2022-09-11T06:46:40.185Z,15.15
2022-09-11T06:47:44.817Z,15.14
2022-09-11T06:48:50.179Z,15.13
2022-09-11T06:49:57.385Z,15.11
2022-09-11T06:51:27.086Z,15.11
2022-09-11T06:52:29.064Z,15.12
2022-09-11T06:53:44.917Z,15.11
2022-09-11T06:54:47.655Z,15.13
2022-09-11T06:55:53.557Z,15.13
2022-09-11T06:56:55.885Z,15.14
2022-09-11T06:57:58.867Z,15.14
2022-09-11T06:59:04.090Z,15.12
2022-09-11T07:00:09.168Z,15.10
2022-09-11T07:01:17.514Z,15.09
2022-09-11T07:02:21.129Z,14.88
2022-09-11T07:03:24.288Z,15.06
2022-09-11T07:04:28.630Z,15.06
2022-09-11T07:05:31.091Z,15.04
2022-09-11T07:06:38.453Z,15.09
2022-09-11T07:07:41.280Z,15.12
2022-09-11T07:08:45.143Z,15.13
2022-09-11T07:09:47.123Z,15.16
2022-09-11T07:10:50.354Z,15.19
2022-09-11T07:11:53.906Z,15.20
2022-09-11T07:12:57.989Z,15.24
2022-09-11T07:14:01.419Z,15.27
2022-09-11T07:15:04.488Z,15.32
2022-09-11T07:16:12.574Z,15.35
2022-09-11T07:17:16.776Z,15.39
2022-09-11T07:18:22.729Z,15.44
2022-09-11T07:19:26.208Z,15.46
2022-09-11T07:20:28.359Z,15.50
2022-09-11T07:21:31.873Z,15.53
2022-09-11T07:22:37.010Z,15.57
2022-09-11T07:23:40.772Z,15.59
2022-09-11T07:24:42.799Z,15.62
2022-09-11T07:25:46.002Z,15.65
2022-09-11T07:26:48.243Z,15.68
2022-09-11T07:28:05.044Z,15.71
2022-09-11T07:29:07.030Z,15.54
2022-09-11T07:30:12.082Z,15.76
2022-09-11T07:31:21.117Z,15.80
2022-09-11T07:32:23.620Z,15.81
2022-09-11T07:33:28.852Z,15.85
2022-09-11T07:34:36.283Z,15.88
2022-09-11T07:35:41.929Z,15.90
2022-09-11T07:36:45.736Z,15.92
2022-09-11T07:37:50.847Z,15.92
2022-09-11T07:38:55.936Z,15.92
2022-09-11T07:40:03.006Z,15.93
2022-09-11T07:41:06.964Z,15.93
2022-09-11T07:42:08.893Z,15.90
2022-09-11T07:43:15.289Z,15.89
2022-09-11T07:44:18.453Z,15.87
2022-09-11T07:45:22.894Z,15.62
2022-09-11T07:46:26.864Z,15.87
2022-09-11T07:47:29.940Z,15.87
2022-09-11T07:48:34.062Z,15.86
2022-09-11T07:49:36.065Z,15.87
2022-09-11T07:50:40.154Z,15.87
2022-09-11T07:51:42.468Z,15.87
2022-09-11T07:52:47.147Z,15.86
2022-09-11T07:53:51.911Z,15.89
2022-09-11T07:54:55.661Z,15.92
2022-09-11T07:56:03.524Z,15.94
2022-09-11T07:57:07.188Z,15.97
2022-09-11T07:58:09.807Z,15.98
2022-09-11T07:59:14.591Z,16.03
2022-09-11T08:00:19.152Z,16.04
2022-09-11T08:01:27.353Z,16.08
2022-09-11T08:02:29.951Z,16.12
2022-09-11T08:03:33.351Z,16.15
2022-09-11T08:04:35.583Z,16.18
2022-09-11T08:05:38.628Z,16.19
2022-09-11T08:06:41.057Z,16.23
2022-09-11T08:07:49.809Z,16.25
2022-09-11T08:08:53.718Z,16.24
2022-09-11T08:10:23.367Z,16.24
2022-09-11T08:11:20.927Z,16.23
2022-09-11T08:12:23.906Z,16.21
2022-09-11T08:13:25.833Z,16.20
2022-09-11T08:14:31.189Z,16.20
2022-09-11T08:15:47.291Z,16.20
2022-09-11T08:16:49.406Z,16.19
2022-09-11T08:17:54.371Z,16.17
2022-09-11T08:18:58.080Z,16.17
2022-09-11T08:20:01.061Z,16.16
2022-09-11T08:21:04.244Z,16.16
2022-09-11T08:22:07.239Z,16.16
2022-09-11T08:23:15.329Z,16.17
2022-09-11T08:24:20.118Z,16.17
2022-09-11T08:25:24.003Z,16.19
2022-09-11T08:26:30.196Z,16.21
2022-09-11T08:27:33.621Z,16.21
2022-09-11T08:28:38.701Z,16.21
2022-09-11T08:29:42.268Z,16.21
2022-09-11T08:30:45.902Z,16.20
2022-09-11T08:31:47.879Z,16.20
2022-09-11T08:32:52.099Z,16.22
2022-09-11T08:33:54.657Z,16.22
2022-09-11T08:34:58.505Z,16.24
2022-09-11T08:36:02.417Z,16.24
2022-09-11T08:37:05.766Z,16.26
2022-09-11T08:38:09.776Z,16.29
2022-09-11T08:39:12.762Z,16.32
2022-09-11T08:40:21.379Z,16.35
2022-09-11T08:41:36.209Z,16.38
2022-09-11T08:42:41.636Z,16.42
2022-09-11T08:43:50.866Z,16.43
2022-09-11T08:44:57.508Z,16.46
2022-09-11T08:46:16.991Z,16.48
2022-09-11T08:47:24.371Z,16.47
2022-09-11T08:48:33.357Z,16.50
2022-09-11T08:49:40.402Z,16.52
2022-09-11T08:50:43.609Z,16.51
2022-09-11T08:51:50.043Z,16.54
2022-09-11T08:52:54.153Z,16.57
2022-09-11T08:54:02.375Z,16.61
2022-09-11T08:55:06.343Z,16.66
2022-09-11T08:56:15.496Z,16.68
2022-09-11T08:57:24.273Z,16.71
2022-09-11T08:58:33.598Z,16.72
2022-09-11T08:59:54.843Z,16.68
2022-09-11T09:01:08.209Z,16.70
2022-09-11T09:02:24.256Z,16.73
2022-09-11T09:03:49.575Z,16.75
2022-09-11T09:05:09.889Z,16.75
2022-09-11T09:06:32.471Z,16.81
2022-09-11T09:07:48.462Z,16.87
2022-09-11T09:08:58.987Z,16.94
2022-09-11T09:10:04.328Z,17.04
2022-09-11T09:11:20.509Z,17.13
2022-09-11T09:12:32.397Z,17.25
2022-09-11T09:13:58.173Z,17.38
2022-09-11T09:15:28.672Z,17.50
2022-09-11T09:16:45.360Z,17.60
2022-09-11T09:17:59.664Z,17.65
2022-09-11T09:19:10.095Z,17.64
2022-09-11T09:20:17.815Z,17.62
2022-09-11T09:21:28.043Z,17.58
2022-09-11T09:22:39.296Z,17.56
2022-09-11T09:23:45.994Z,17.52
2022-09-11T09:24:50.084Z,17.49
2022-09-11T09:25:55.847Z,17.47
2022-09-11T09:26:57.943Z,17.44
2022-09-11T09:28:05.377Z,17.42
2022-09-11T09:29:13.376Z,17.40
2022-09-11T09:30:19.195Z,17.41
2022-09-11T09:31:25.747Z,17.44
2022-09-11T09:32:33.093Z,17.49
2022-09-11T09:33:43.351Z,17.53
2022-09-11T09:34:47.059Z,17.59
2022-09-11T09:35:51.100Z,17.62
2022-09-11T09:37:04.378Z,17.65
2022-09-11T09:38:12.858Z,17.69
2022-09-11T09:39:17.020Z,17.73
2022-09-11T09:40:20.305Z,17.80
2022-09-11T09:41:52.632Z,17.89
2022-09-11T09:43:26.319Z,17.99
2022-09-11T09:44:47.622Z,18.05
2022-09-11T09:46:09.883Z,18.04
2022-09-11T09:47:27.659Z,17.83
2022-09-11T09:48:41.520Z,17.94
2022-09-11T09:49:45.799Z,17.89
2022-09-11T09:51:04.049Z,17.82
2022-09-11T09:52:21.684Z,17.63
2022-09-11T09:53:42.668Z,17.86
2022-09-11T09:54:54.620Z,17.94
2022-09-11T09:55:59.121Z,18.01
2022-09-11T09:57:05.777Z,18.09
2022-09-11T09:58:07.737Z,18.20
2022-09-11T09:59:18.125Z,18.32
2022-09-11T10:00:20.887Z,18.44
2022-09-11T10:01:47.786Z,18.62
2022-09-11T10:02:54.879Z,18.72
2022-09-11T10:04:11.357Z,18.78
2022-09-11T10:05:21.013Z,18.81
2022-09-11T10:06:23.825Z,18.80
2022-09-11T10:07:27.227Z,18.79
2022-09-11T10:08:34.353Z,18.76
2022-09-11T10:09:38.135Z,18.75
2022-09-11T10:10:42.953Z,18.73
2022-09-11T10:11:46.714Z,18.73
2022-09-11T10:12:48.902Z,18.73
2022-09-11T10:13:57.232Z,18.77
2022-09-11T10:15:01.385Z,18.82
2022-09-11T10:16:06.792Z,18.88
2022-09-11T10:17:20.392Z,18.96
2022-09-11T10:18:25.139Z,19.05
2022-09-11T10:19:40.823Z,19.11
2022-09-11T10:20:44.521Z,19.16
2022-09-11T10:21:46.572Z,19.18
2022-09-11T10:22:49.868Z,19.20
2022-09-11T10:23:55.466Z,19.21
2022-09-11T10:25:17.059Z,19.22
2022-09-11T10:26:23.342Z,19.24
2022-09-11T10:27:28.848Z,19.26
2022-09-11T10:28:34.504Z,19.30
2022-09-11T10:29:36.630Z,19.34
2022-09-11T10:30:41.779Z,19.37
2022-09-11T10:31:52.210Z,19.41
2022-09-11T10:32:58.073Z,19.45
2022-09-11T10:34:06.126Z,19.50
2022-09-11T10:35:10.900Z,19.54
2022-09-11T10:36:13.978Z,19.59
2022-09-11T10:37:26.020Z,19.64
2022-09-11T10:38:32.320Z,19.67
2022-09-11T10:39:37.482Z,19.68
2022-09-11T10:40:41.302Z,19.72
2022-09-11T10:41:50.915Z,19.74
2022-09-11T10:42:54.774Z,19.73
2022-09-11T10:44:01.583Z,19.72
2022-09-11T10:45:10.437Z,19.70
2022-09-11T10:46:25.649Z,19.66
2022-09-11T10:47:29.855Z,19.65
2022-09-11T10:48:32.639Z,19.65
2022-09-11T10:49:36.198Z,19.66
2022-09-11T10:50:39.513Z,19.70
2022-09-11T10:52:00.249Z,19.74
2022-09-11T10:53:21.548Z,19.81
2022-09-11T10:54:37.403Z,19.88
2022-09-11T10:55:45.099Z,19.98
2022-09-11T10:57:08.845Z,20.10
2022-09-11T10:58:14.907Z,20.21
2022-09-11T10:59:22.466Z,20.26
2022-09-11T11:00:27.149Z,20.29
2022-09-11T11:01:29.114Z,20.30
2022-09-11T11:02:34.697Z,20.29
2022-09-11T11:03:36.825Z,20.27
2022-09-11T11:04:39.842Z,20.26
2022-09-11T11:05:54.358Z,20.28
2022-09-11T11:07:09.929Z,20.27
2022-09-11T11:08:27.460Z,20.28
2022-09-11T11:09:57.133Z,20.27
2022-09-11T11:11:18.060Z,20.25
2022-09-11T11:12:40.514Z,20.20
2022-09-11T11:14:07.229Z,20.15
2022-09-11T11:15:30.093Z,20.11
2022-09-11T11:16:45.649Z,20.07
2022-09-11T11:18:00.523Z,20.02
2022-09-11T11:19:24.411Z,19.95
2022-09-11T11:20:38.307Z,19.86
2022-09-11T11:21:57.840Z,19.77
2022-09-11T11:23:43.141Z,19.58
2022-09-11T11:24:57.121Z,19.53
2022-09-11T11:26:14.727Z,19.45
2022-09-11T11:27:37.332Z,19.38
2022-09-11T11:29:08.957Z,19.31
2022-09-11T11:30:19.129Z,19.24
2022-09-11T11:31:40.321Z,19.25
2022-09-11T11:33:15.009Z,19.28
2022-09-11T11:34:38.332Z,19.35
2022-09-11T11:35:45.859Z,19.44
2022-09-11T11:36:56.287Z,19.51
2022-09-11T11:38:07.278Z,19.60
2022-09-11T11:39:19.443Z,19.67
2022-09-11T11:40:32.320Z,19.80
2022-09-11T11:41:44.874Z,19.93
2022-09-11T11:42:56.026Z,20.05
2022-09-11T11:44:02.716Z,20.14
2022-09-11T11:45:11.604Z,20.22
2022-09-11T11:46:18.106Z,20.27
2022-09-11T11:47:31.134Z,20.33
2022-09-11T11:48:41.260Z,20.41
2022-09-11T11:49:59.049Z,20.46
2022-09-11T11:51:07.364Z,20.52
2022-09-11T11:52:23.381Z,20.56
2022-09-11T11:53:31.420Z,20.60
2022-09-11T11:54:39.886Z,20.65
2022-09-11T11:55:51.960Z,20.67
2022-09-11T11:57:00.100Z,20.72
2022-09-11T11:58:13.475Z,20.75
2022-09-11T11:59:20.826Z,20.75
2022-09-11T12:00:23.817Z,20.74
2022-09-11T12:02:41.245Z,20.74
2022-09-11T12:03:50.377Z,20.73
2022-09-11T12:04:59.443Z,20.73
2022-09-11T12:06:03.002Z,20.73
2022-09-11T12:07:05.635Z,20.73
2022-09-11T12:08:16.933Z,20.75
2022-09-11T12:09:19.235Z,20.74
2022-09-11T12:10:28.081Z,20.76
2022-09-11T12:11:35.163Z,20.76
2022-09-11T12:12:48.699Z,20.74
2022-09-11T12:13:55.039Z,20.71
2022-09-11T12:15:03.859Z,20.66
2022-09-11T12:16:15.205Z,20.60
2022-09-11T12:17:19.746Z,20.54
2022-09-11T12:18:25.868Z,20.51
2022-09-11T12:19:27.849Z,20.50
2022-09-11T12:20:41.612Z,20.50
2022-09-11T12:22:06.690Z,20.57
2022-09-11T12:23:36.053Z,20.65
2022-09-11T12:24:55.151Z,20.77
2022-09-11T12:26:18.307Z,20.89
2022-09-11T12:28:10.640Z,21.06
2022-09-11T12:29:50.037Z,21.31
2022-09-11T12:30:58.663Z,21.48
2022-09-11T12:32:40.779Z,21.61
2022-09-11T12:33:57.688Z,21.70
2022-09-11T12:35:13.394Z,21.73
2022-09-11T12:36:18.631Z,21.74
2022-09-11T12:37:26.826Z,21.74
2022-09-11T12:38:38.823Z,21.71
2022-09-11T12:39:51.659Z,21.56
2022-09-11T12:40:58.525Z,21.53
2022-09-11T12:42:39.709Z,21.36
2022-09-11T12:43:49.082Z,21.18
2022-09-11T12:44:59.643Z,21.05
2022-09-11T12:46:02.163Z,20.94
2022-09-11T12:47:13.576Z,20.83
2022-09-11T12:48:20.230Z,20.74
2022-09-11T12:49:24.015Z,20.66
2022-09-11T12:50:29.425Z,20.58
2022-09-11T12:51:34.859Z,20.52
2022-09-11T12:52:42.734Z,20.46
2022-09-11T12:53:50.278Z,20.43
2022-09-11T12:54:52.948Z,20.37
2022-09-11T12:55:59.811Z,20.33
2022-09-11T12:57:05.967Z,20.29
2022-09-11T12:58:25.386Z,20.25
2022-09-11T12:59:32.121Z,20.21
2022-09-11T13:00:41.757Z,20.21
2022-09-11T13:01:45.657Z,20.20
2022-09-11T13:02:55.316Z,20.21
2022-09-11T13:04:01.441Z,20.23
2022-09-11T13:05:07.156Z,20.27
2022-09-11T13:06:11.800Z,20.33
2022-09-11T13:07:28.684Z,20.53
2022-09-11T13:08:34.494Z,20.73
2022-09-11T13:09:43.149Z,20.86
2022-09-11T13:10:46.774Z,21.02
2022-09-11T13:11:56.818Z,21.08
2022-09-11T13:13:28.794Z,21.10
2022-09-11T13:14:52.080Z,21.04
2022-09-11T13:15:57.878Z,20.99
2022-09-11T13:17:02.346Z,20.91
2022-09-11T13:18:32.331Z,20.80
2022-09-11T13:19:35.910Z,20.71
2022-09-11T13:20:38.846Z,20.64
2022-09-11T13:21:43.197Z,20.57
2022-09-11T13:22:48.622Z,20.51
2022-09-11T13:23:52.303Z,20.46
2022-09-11T13:25:07.443Z,20.40
2022-09-11T13:26:15.887Z,20.33
2022-09-11T13:27:24.561Z,20.26
2022-09-11T13:28:31.749Z,20.20
2022-09-11T13:29:35.646Z,20.13
2022-09-11T13:30:51.156Z,20.05
2022-09-11T13:31:55.802Z,19.98
2022-09-11T13:33:08.866Z,19.89
2022-09-11T13:34:16.804Z,19.81
2022-09-11T13:35:25.598Z,19.72
2022-09-11T13:36:30.036Z,19.65
2022-09-11T13:37:37.525Z,19.61
2022-09-11T13:38:42.295Z,19.56
2022-09-11T13:39:47.104Z,19.51
2022-09-11T13:40:56.866Z,19.52
2022-09-11T13:42:03.585Z,19.51
2022-09-11T13:43:05.519Z,19.55
2022-09-11T13:44:12.269Z,19.59
2022-09-11T13:45:17.003Z,19.65
2022-09-11T13:46:23.427Z,19.72
2022-09-11T13:47:27.175Z,19.82
2022-09-11T13:48:30.041Z,19.96
2022-09-11T13:49:36.083Z,20.07
2022-09-11T13:50:39.141Z,20.15
2022-09-11T13:51:44.611Z,20.23
2022-09-11T13:52:48.077Z,20.30
2022-09-11T13:53:57.055Z,20.35
2022-09-11T13:55:03.359Z,20.42
2022-09-11T13:56:20.934Z,20.53
2022-09-11T13:57:25.779Z,20.62
2022-09-11T13:58:32.647Z,20.72
2022-09-11T13:59:39.499Z,20.77
2022-09-11T14:00:44.900Z,20.89
2022-09-11T14:02:00.857Z,20.96
2022-09-11T14:03:02.943Z,20.97
2022-09-11T14:04:11.560Z,20.96
2022-09-11T14:05:17.666Z,20.94
2022-09-11T14:06:21.698Z,20.89
2022-09-11T14:07:26.496Z,20.84
2022-09-11T14:08:34.271Z,20.79
2022-09-11T14:09:36.322Z,20.72
2022-09-11T14:10:47.071Z,20.67
2022-09-11T14:11:50.538Z,20.65
2022-09-11T14:13:00.441Z,20.65
2022-09-11T14:14:09.289Z,20.65
2022-09-11T14:15:22.406Z,20.70
2022-09-11T14:16:29.063Z,20.75
2022-09-11T14:17:31.140Z,20.81
2022-09-11T14:18:40.680Z,20.87
2022-09-11T14:19:44.380Z,20.93
2022-09-11T14:20:47.855Z,20.94
2022-09-11T14:21:52.116Z,21.01
2022-09-11T14:22:56.830Z,21.05
2022-09-11T14:24:00.450Z,21.06
2022-09-11T14:25:12.307Z,21.04
2022-09-11T14:26:17.679Z,21.01
2022-09-11T14:27:41.716Z,20.94
2022-09-11T14:28:49.561Z,20.89
2022-09-11T14:29:53.572Z,20.85